KELY/ELY METAR and TAF weather

Enter ICAO airport designator
Station Type Date Time Source
KELY METAR 2023/05/28 01:53 UTC NOAA

KELY 280153Z AUTO 25004KT 10SM OVC100 19/01 A3000 RMK AO2 SLP087 T01890006


Station Type Date Time Source
KELY Decoded METAR 2023/05/28 01:53 UTC NOAA

ELY AIRPORT (YELLAND FIELD), NV, United States (KELY) 39-18N 114-51W 1906M
May 27, 2023 - 09:53 PM EDT / 2023.05.28 0153 UTC
Wind: from the WSW (250 degrees) at 5 MPH (4 KT):0
Visibility: 10 mile(s):0
Sky conditions: overcast
Temperature: 66.0 F (18.9 C)
Dew Point: 33.1 F (0.6 C)
Relative Humidity: 29%
Pressure (altimeter): 30 in. Hg (1015 hPa)
ob: KELY 280153Z AUTO 25004KT 10SM OVC100 19/01 A3000 RMK AO2 SLP087 T01890006
cycle: 2

Station Type Date Time Source
KELY TAF 2023/05/27 18:39 UTC NOAA

TAF KELY 271735Z 2718/2818 VRB06KT P6SM SCT120
FM272100 26008KT P6SM BKN200
FM280300 VRB05KT P6SM SCT120
FM281000 16007KT P6SM FEW120
FM281300 17006KT P6SM SCT200

Example: see airport list